Time;durP1;ratioP1;P1;durP2;ratioP2;P2;SDS_P1;SDS_P2;PMS_P1;PMS_P2;Temp;Humidity;BMP_temperature;BMP_pressure;BME280_temperature;BME280_humidity;BME280_pressure;Samples;Min_cycle;Max_cycle;Signal;HPM_P1;HPM_P2
2023/08/14 00:00:50;;;;;;;2.72;2.53;;;19.30;99.90;;;;;;5085195;28;20040;-37
2023/08/14 00:03:15;;;;;;;3.85;3.03;;;19.30;99.90;;;;;;5080061;28;20024;-41
2023/08/14 00:05:44;;;;;;;4.38;3.00;;;19.30;99.90;;;;;;5068517;28;20033;-35
2023/08/14 00:08:10;;;;;;;3.75;2.70;;;19.30;99.90;;;;;;5075270;28;20031;-35
2023/08/14 00:10:35;;;;;;;3.95;2.53;;;19.30;99.90;;;;;;5069960;28;20032;-35
2023/08/14 00:13:01;;;;;;;3.08;2.47;;;19.20;99.90;;;;;;5072963;28;20032;-35
2023/08/14 00:15:27;;;;;;;3.10;2.70;;;19.20;99.90;;;;;;5073414;28;20033;-36
2023/08/14 00:17:52;;;;;;;3.63;2.83;;;19.20;99.90;;;;;;5070395;28;20911;-34
2023/08/14 00:20:18;;;;;;;2.90;2.40;;;19.20;99.90;;;;;;5075775;28;20111;-35
2023/08/14 00:22:43;;;;;;;4.45;3.17;;;19.20;99.90;;;;;;5067577;28;20376;-36
2023/08/14 00:25:10;;;;;;;2.72;2.40;;;19.20;99.90;;;;;;5077591;28;20035;-36
2023/08/14 00:27:36;;;;;;;3.50;2.58;;;19.20;99.90;;;;;;5068625;28;20063;-35
2023/08/14 00:30:02;;;;;;;5.80;2.72;;;19.10;99.90;;;;;;5076661;28;20021;-36
2023/08/14 00:32:28;;;;;;;3.47;2.88;;;19.10;99.90;;;;;;5066177;28;20040;-35
2023/08/14 00:34:53;;;;;;;4.32;3.00;;;19.10;99.90;;;;;;5080045;28;20044;-34
2023/08/14 00:37:22;;;;;;;3.53;2.90;;;19.10;99.90;;;;;;5065112;28;20737;-34
2023/08/14 00:39:48;;;;;;;4.25;2.65;;;19.10;99.90;;;;;;5079654;28;20824;-34
2023/08/14 00:42:14;;;;;;;3.70;3.00;;;19.00;99.90;;;;;;5066792;28;20128;-36
2023/08/14 00:44:39;;;;;;;4.03;2.80;;;19.00;99.90;;;;;;5078172;28;20031;-35
2023/08/14 00:47:07;;;;;;;5.07;2.85;;;19.00;99.90;;;;;;5067722;28;20028;-34
2023/08/14 00:49:33;;;;;;;3.50;2.72;;;19.00;99.90;;;;;;5075857;28;20111;-34
2023/08/14 00:52:00;;;;;;;4.60;2.80;;;19.00;99.90;;;;;;5067709;28;20491;-34
2023/08/14 00:54:26;;;;;;;5.75;3.53;;;18.90;99.90;;;;;;5071953;28;20028;-35
2023/08/14 00:57:03;;;;;;;2.78;2.58;;;18.90;99.90;;;;;;5071366;28;20028;-35
2023/08/14 00:59:29;;;;;;;2.90;2.70;;;19.00;99.90;;;;;;5072991;28;20040;-38
2023/08/14 01:01:55;;;;;;;4.05;2.80;;;18.90;99.90;;;;;;5070159;28;20475;-35
2023/08/14 01:04:21;;;;;;;4.72;3.10;;;18.90;99.90;;;;;;5067106;28;20050;-37
2023/08/14 01:06:49;;;;;;;3.20;2.70;;;18.80;99.90;;;;;;5072993;28;20016;-36
2023/08/14 01:09:15;;;;;;;3.80;3.20;;;18.80;99.90;;;;;;5064533;28;20147;-35
2023/08/14 01:11:57;;;;;;;3.17;2.67;;;18.80;99.90;;;;;;5075435;28;20059;-35
2023/08/14 01:14:31;;;;;;;4.95;2.90;;;18.80;99.90;;;;;;5065174;28;20029;-35
2023/08/14 01:17:02;;;;;;;4.00;3.15;;;18.80;99.90;;;;;;5074655;28;20038;-35
2023/08/14 01:19:39;;;;;;;4.30;3.28;;;18.80;99.90;;;;;;5083132;28;20028;-36
2023/08/14 01:22:16;;;;;;;3.72;3.00;;;18.70;99.90;;;;;;5073531;28;20028;-36
2023/08/14 01:25:26;;;;;;;4.70;2.90;;;18.70;99.90;;;;;;5083684;28;20032;-36
2023/08/14 01:27:52;;;;;;;3.90;3.38;;;18.70;99.90;;;;;;5077183;28;20056;-35
2023/08/14 01:30:22;;;;;;;5.63;3.20;;;18.60;99.90;;;;;;5079866;28;20733;-36
2023/08/14 01:32:48;;;;;;;4.85;3.40;;;18.60;99.90;;;;;;5076639;28;20032;-36
2023/08/14 01:35:16;;;;;;;3.53;3.13;;;18.60;99.90;;;;;;5082497;28;20807;-36
2023/08/14 01:38:27;;;;;;;5.20;3.25;;;18.50;99.90;;;;;;5074654;28;20371;-35
2023/08/14 01:41:12;;;;;;;5.70;3.10;;;18.50;99.90;;;;;;5078890;28;20027;-35
2023/08/14 01:43:42;;;;;;;5.47;3.40;;;18.50;99.90;;;;;;5081161;28;20063;-35
2023/08/14 01:46:10;;;;;;;3.60;3.20;;;18.50;99.90;;;;;;5077371;28;20044;-35
2023/08/14 01:48:38;;;;;;;3.97;3.28;;;18.50;99.90;;;;;;5079210;28;20391;-35
2023/08/14 01:51:04;;;;;;;4.93;3.42;;;18.40;99.90;;;;;;5042262;28;1088874;-34
2023/08/14 01:53:36;;;;;;;4.43;3.60;;;18.40;99.90;;;;;;5078662;28;20135;-35
2023/08/14 01:56:02;;;;;;;3.83;3.53;;;18.40;99.90;;;;;;5082070;28;20031;-35
2023/08/14 01:58:28;;;;;;;4.13;3.40;;;18.40;99.90;;;;;;5076442;28;20035;-35
2023/08/14 02:00:53;;;;;;;3.78;3.22;;;18.40;99.90;;;;;;5069228;28;20047;-36
2023/08/14 02:03:25;;;;;;;5.88;3.75;;;18.40;99.90;;;;;;5076264;28;20523;-35
2023/08/14 02:05:51;;;;;;;6.93;3.58;;;18.40;99.90;;;;;;5067148;28;20017;-35
2023/08/14 02:08:16;;;;;;;4.78;3.78;;;18.30;99.90;;;;;;5074324;28;20028;-35
2023/08/14 02:10:42;;;;;;;4.28;3.72;;;18.30;99.90;;;;;;5065405;28;20434;-34
2023/08/14 02:13:08;;;;;;;5.10;3.85;;;18.30;99.90;;;;;;5076153;28;20028;-36
2023/08/14 02:15:33;;;;;;;4.82;3.78;;;18.30;99.90;;;;;;5063840;28;20025;-35
2023/08/14 02:17:59;;;;;;;5.43;4.93;;;18.30;99.90;;;;;;5076620;28;20475;-36
2023/08/14 02:20:25;;;;;;;4.25;3.85;;;18.30;99.90;;;;;;5064380;28;20025;-35
2023/08/14 02:22:50;;;;;;;4.32;3.92;;;18.20;99.90;;;;;;5074084;28;20032;-36
2023/08/14 02:25:19;;;;;;;6.28;4.45;;;18.30;99.90;;;;;;5065895;28;20040;-36
2023/08/14 02:27:46;;;;;;;9.73;4.10;;;18.20;99.90;;;;;;5073357;28;20016;-36
2023/08/14 02:30:12;;;;;;;5.03;4.18;;;18.20;99.90;;;;;;5067302;28;20028;-34
2023/08/14 02:32:37;;;;;;;5.03;4.50;;;18.20;99.90;;;;;;5070250;28;20027;-37
2023/08/14 02:35:06;;;;;;;4.88;4.47;;;18.20;99.90;;;;;;5070366;28;20020;-35
2023/08/14 02:37:31;;;;;;;4.63;4.13;;;18.20;99.90;;;;;;5067457;28;20044;-35
2023/08/14 02:40:00;;;;;;;4.93;4.07;;;18.20;99.90;;;;;;5072985;28;20878;-35
2023/08/14 02:42:26;;;;;;;4.40;4.05;;;18.20;99.90;;;;;;5065924;28;20468;-34
2023/08/14 02:44:54;;;;;;;6.57;4.68;;;18.20;99.90;;;;;;5075188;28;20027;-34
2023/08/14 02:47:19;;;;;;;6.70;4.60;;;18.20;99.90;;;;;;5065635;28;20112;-34
2023/08/14 02:49:45;;;;;;;5.72;4.88;;;18.20;99.90;;;;;;5075822;28;20028;-34
2023/08/14 02:52:11;;;;;;;6.40;5.30;;;18.20;99.90;;;;;;5063333;28;20070;-34
2023/08/14 02:54:36;;;;;;;5.78;5.10;;;18.10;99.90;;;;;;5076184;28;20032;-34
2023/08/14 02:57:02;;;;;;;5.63;5.13;;;18.10;99.90;;;;;;5064129;28;20559;-35
2023/08/14 02:59:27;;;;;;;6.93;4.78;;;18.10;99.90;;;;;;5073011;28;20777;-35
2023/08/14 03:01:53;;;;;;;5.45;4.65;;;18.10;99.90;;;;;;5064524;28;20493;-36
2023/08/14 03:04:19;;;;;;;6.50;4.55;;;18.10;99.90;;;;;;5074344;28;20364;-36
2023/08/14 03:06:44;;;;;;;6.15;5.15;;;18.10;99.90;;;;;;5065498;28;20032;-35
2023/08/14 03:09:13;;;;;;;5.90;5.07;;;18.10;99.90;;;;;;5072010;28;20111;-37
2023/08/14 03:11:39;;;;;;;5.53;4.93;;;18.00;99.90;;;;;;5066698;28;20021;-35
2023/08/14 03:14:05;;;;;;;4.95;4.43;;;18.00;99.90;;;;;;5069752;28;20060;-36
2023/08/14 03:16:30;;;;;;;5.85;5.05;;;18.00;99.90;;;;;;5070316;28;20623;-35
2023/08/14 03:18:56;;;;;;;7.13;5.28;;;18.00;99.90;;;;;;5066414;28;20060;-36
2023/08/14 03:21:21;;;;;;;7.53;5.40;;;18.00;99.90;;;;;;5071110;28;20017;-36
2023/08/14 03:23:48;;;;;;;5.82;5.22;;;18.00;99.90;;;;;;5064063;28;20037;-36
2023/08/14 03:26:14;;;;;;;8.52;5.10;;;18.00;99.90;;;;;;5073004;28;20100;-35
2023/08/14 03:28:39;;;;;;;6.20;5.57;;;18.00;99.90;;;;;;5064998;28;20051;-35
2023/08/14 03:31:05;;;;;;;7.40;5.53;;;18.00;99.90;;;;;;5074243;28;20025;-35
2023/08/14 03:33:36;;;;;;;5.15;4.60;;;18.00;99.90;;;;;;5062778;28;20033;-34
2023/08/14 03:36:02;;;;;;;7.50;5.45;;;18.00;99.90;;;;;;5070934;28;20054;-35
2023/08/14 03:38:28;;;;;;;8.15;5.05;;;18.00;99.90;;;;;;5083711;28;20115;-35
2023/08/14 03:40:53;;;;;;;5.93;5.20;;;18.00;99.90;;;;;;5070183;28;20056;-36
2023/08/14 03:43:22;;;;;;;6.13;4.65;;;18.00;99.90;;;;;;5083528;28;20229;-36
2023/08/14 03:45:47;;;;;;;5.82;4.70;;;18.00;99.90;;;;;;5071143;28;20040;-36
2023/08/14 03:48:13;;;;;;;6.03;4.75;;;17.90;99.90;;;;;;5081762;28;20145;-36
2023/08/14 03:50:38;;;;;;;5.05;4.50;;;17.90;99.90;;;;;;5074634;28;20040;-34
2023/08/14 03:53:04;;;;;;;5.90;4.68;;;17.90;99.90;;;;;;5080191;28;20056;-35
2023/08/14 03:55:29;;;;;;;4.88;4.38;;;17.90;99.90;;;;;;5076651;28;20112;-36
2023/08/14 03:57:56;;;;;;;6.45;4.65;;;17.90;99.90;;;;;;5078052;28;20077;-36
2023/08/14 04:00:22;;;;;;;4.55;4.15;;;17.90;99.90;;;;;;5075825;28;20059;-35
2023/08/14 04:02:48;;;;;;;6.68;4.55;;;17.90;99.90;;;;;;5071073;28;20147;-36
2023/08/14 04:05:13;;;;;;;5.75;4.53;;;17.80;99.90;;;;;;5064280;28;20094;-36
2023/08/14 04:07:39;;;;;;;5.70;4.22;;;17.80;99.90;;;;;;5072166;28;20047;-35
2023/08/14 04:10:05;;;;;;;5.70;4.25;;;17.80;99.90;;;;;;5081872;28;20176;-35
2023/08/14 04:12:31;;;;;;;4.10;3.70;;;17.80;99.90;;;;;;5072883;28;20130;-35
2023/08/14 04:15:14;;;;;;;4.70;3.70;;;17.80;99.90;;;;;;5082912;28;20484;-34
2023/08/14 04:17:39;;;;;;;4.35;3.45;;;17.80;99.90;;;;;;5072456;28;20024;-34
2023/08/14 04:20:05;;;;;;;5.43;3.88;;;17.80;99.90;;;;;;5083636;28;20039;-36
2023/08/14 04:22:31;;;;;;;4.40;4.00;;;17.70;99.90;;;;;;5075021;28;20021;-35
2023/08/14 04:24:56;;;;;;;4.03;3.53;;;17.70;99.90;;;;;;5063491;28;20028;-35
2023/08/14 04:27:22;;;;;;;5.38;3.80;;;17.70;99.90;;;;;;5075478;28;20115;-35
2023/08/14 04:29:48;;;;;;;4.50;4.05;;;17.70;99.90;;;;;;5061641;28;20452;-34
2023/08/14 04:32:19;;;;;;;4.90;3.70;;;17.60;99.90;;;;;;5074630;28;20024;-35
2023/08/14 04:34:45;;;;;;;4.60;3.83;;;17.70;99.90;;;;;;5066987;28;20059;-35
2023/08/14 04:37:11;;;;;;;5.88;3.72;;;17.70;99.90;;;;;;5073931;28;20122;-36
2023/08/14 04:39:36;;;;;;;4.70;3.75;;;17.70;99.90;;;;;;5069776;28;20044;-34
2023/08/14 04:42:02;;;;;;;4.82;3.72;;;17.70;99.90;;;;;;5072252;28;20028;-36
2023/08/14 04:44:27;;;;;;;3.60;3.30;;;17.70;99.90;;;;;;5071543;28;20030;-35
2023/08/14 04:46:53;;;;;;;5.03;3.75;;;17.70;99.90;;;;;;5070005;28;20063;-35
2023/08/14 04:49:18;;;;;;;3.90;3.30;;;17.80;99.90;;;;;;5074893;28;20044;-34
2023/08/14 04:51:44;;;;;;;4.05;3.65;;;17.80;99.90;;;;;;5066693;28;20076;-35
2023/08/14 04:54:09;;;;;;;4.45;3.70;;;17.80;99.90;;;;;;5078041;28;20052;-36
2023/08/14 04:56:35;;;;;;;5.43;3.75;;;17.90;99.90;;;;;;5067965;28;20032;-34
2023/08/14 04:59:00;;;;;;;5.97;3.97;;;17.90;99.90;;;;;;5076731;28;20059;-35
2023/08/14 05:01:26;;;;;;;4.50;3.83;;;17.90;99.90;;;;;;5087065;28;20063;-36
2023/08/14 05:03:52;;;;;;;4.32;3.92;;;18.00;99.90;;;;;;5074109;28;20496;-36
2023/08/14 05:06:17;;;;;;;3.88;3.50;;;18.00;99.90;;;;;;5087008;28;20028;-35
2023/08/14 05:08:43;;;;;;;6.03;3.83;;;18.00;99.90;;;;;;5074407;28;20464;-36
2023/08/14 05:11:09;;;;;;;4.88;3.70;;;18.00;99.90;;;;;;5085581;28;20020;-36
2023/08/14 05:13:34;;;;;;;4.70;4.18;;;18.10;99.90;;;;;;5075889;28;20103;-36
2023/08/14 05:16:00;;;;;;;5.40;3.90;;;18.10;99.90;;;;;;5085337;28;20111;-35
2023/08/14 05:18:25;;;;;;;6.03;4.07;;;18.10;99.90;;;;;;5078682;28;20814;-35
2023/08/14 05:20:53;;;;;;;6.72;4.10;;;18.10;99.90;;;;;;5082768;28;20020;-35
2023/08/14 05:23:19;;;;;;;5.28;4.10;;;18.20;99.90;;;;;;5080574;28;20021;-36
2023/08/14 05:25:45;;;;;;;6.47;4.47;;;18.20;99.90;;;;;;5078968;28;20037;-36
2023/08/14 05:28:11;;;;;;;7.20;4.10;;;18.30;99.90;;;;;;5083105;28;20138;-37
2023/08/14 05:30:49;;;;;;;4.85;4.30;;;18.30;99.90;;;;;;5077424;28;20123;-35
2023/08/14 05:33:15;;;;;;;4.70;4.30;;;18.30;99.90;;;;;;5083090;28;20016;-35
2023/08/14 05:35:40;;;;;;;5.13;4.13;;;18.40;99.90;;;;;;5076047;28;20027;-35
2023/08/14 05:38:06;;;;;;;6.25;4.20;;;18.50;99.90;;;;;;5083981;28;20027;-37
2023/08/14 05:40:32;;;;;;;4.38;3.95;;;18.50;99.90;;;;;;5073466;28;20020;-36
2023/08/14 05:43:08;;;;;;;7.38;4.18;;;18.60;99.90;;;;;;5083359;28;20034;-36
2023/08/14 05:45:35;;;;;;;5.38;4.10;;;18.70;99.90;;;;;;5076630;28;20017;-35
2023/08/14 05:48:02;;;;;;;3.70;3.40;;;18.80;99.90;;;;;;5064650;28;20016;-34
2023/08/14 05:50:31;;;;;;;4.05;3.75;;;18.80;99.90;;;;;;5078215;28;20159;-35
2023/08/14 05:52:59;;;;;;;3.80;3.38;;;18.90;99.90;;;;;;5064666;28;20032;-36
2023/08/14 05:55:26;;;;;;;4.30;3.28;;;19.00;99.90;;;;;;5077969;28;20523;-36
2023/08/14 05:57:51;;;;;;;4.18;3.78;;;19.00;99.90;;;;;;5066314;28;20025;-36
2023/08/14 06:00:18;;;;;;;5.00;4.35;;;19.00;99.90;;;;;;5066421;28;20808;-35
2023/08/14 06:02:44;;;;;;;5.72;4.35;;;19.10;99.90;;;;;;5066389;28;20074;-35
2023/08/14 06:05:16;;;;;;;5.55;4.35;;;19.10;99.90;;;;;;5071212;28;20025;-37
2023/08/14 06:07:41;;;;;;;4.72;3.95;;;19.20;99.90;;;;;;5065588;28;20559;-35
2023/08/14 06:10:07;;;;;;;4.40;3.90;;;19.20;99.90;;;;;;5073199;28;20032;-35
2023/08/14 06:12:33;;;;;;;5.03;4.20;;;19.20;99.90;;;;;;5070506;28;20564;-35
2023/08/14 06:14:58;;;;;;;6.32;4.07;;;19.20;99.90;;;;;;5070094;28;20065;-36
2023/08/14 06:17:25;;;;;;;5.45;4.15;;;19.30;99.90;;;;;;5072487;28;20050;-36
2023/08/14 06:19:51;;;;;;;5.18;4.32;;;19.30;99.90;;;;;;5066959;28;20142;-36
2023/08/14 06:22:17;;;;;;;5.18;4.68;;;19.30;99.90;;;;;;5074486;28;20618;-34
2023/08/14 06:24:42;;;;;;;6.65;4.88;;;19.30;99.90;;;;;;5066470;28;20470;-35
2023/08/14 06:27:08;;;;;;;5.25;4.75;;;19.30;99.90;;;;;;5075646;28;20040;-37
2023/08/14 06:29:34;;;;;;;5.32;4.70;;;19.30;99.90;;;;;;5066291;28;20055;-35
2023/08/14 06:32:00;;;;;;;6.22;5.13;;;19.40;99.90;;;;;;5077002;28;20028;-37
2023/08/14 06:34:26;;;;;;;5.95;4.75;;;19.40;99.90;;;;;;5065468;28;20028;-36
2023/08/14 06:36:52;;;;;;;5.20;4.45;;;19.40;99.90;;;;;;5077021;28;20032;-34
2023/08/14 06:39:17;;;;;;;6.68;4.95;;;19.50;99.90;;;;;;5064178;28;20532;-35
2023/08/14 06:41:43;;;;;;;4.88;4.32;;;19.50;99.90;;;;;;5077496;28;20107;-35
2023/08/14 06:44:09;;;;;;;6.63;4.60;;;19.60;99.90;;;;;;5064253;28;20507;-37
2023/08/14 06:46:34;;;;;;;5.35;4.85;;;19.60;99.90;;;;;;5072900;28;20467;-37
2023/08/14 06:49:00;;;;;;;5.25;4.60;;;19.70;99.90;;;;;;5065376;28;20025;-36
2023/08/14 06:51:26;;;;;;;5.78;4.43;;;19.70;99.90;;;;;;5069439;28;20136;-35
2023/08/14 06:53:51;;;;;;;5.18;4.60;;;19.70;99.90;;;;;;5068386;28;20028;-36
2023/08/14 06:56:17;;;;;;;5.80;4.70;;;19.80;99.90;;;;;;5066822;28;20089;-34
2023/08/14 06:58:45;;;;;;;7.13;4.90;;;19.90;99.90;;;;;;5083785;28;20051;-37
2023/08/14 07:01:11;;;;;;;6.10;5.45;;;19.90;99.90;;;;;;5068967;28;20015;-36
2023/08/14 07:03:37;;;;;;;6.18;5.57;;;19.90;99.90;;;;;;5073821;28;20024;-36
2023/08/14 07:06:02;;;;;;;6.63;5.38;;;19.90;99.90;;;;;;5065117;28;20025;-34
2023/08/14 07:08:28;;;;;;;6.22;5.53;;;20.00;99.90;;;;;;5074517;28;20024;-35
2023/08/14 07:10:54;;;;;;;8.07;5.60;;;20.00;99.90;;;;;;5064784;28;20084;-35
2023/08/14 07:13:21;;;;;;;7.20;5.18;;;20.00;99.90;;;;;;5074281;28;20589;-36
2023/08/14 07:15:47;;;;;;;8.15;5.22;;;20.10;99.90;;;;;;5064643;28;20033;-39
2023/08/14 07:18:18;;;;;;;7.28;5.47;;;20.10;99.90;;;;;;5075801;28;20119;-36
2023/08/14 07:20:45;;;;;;;6.45;4.53;;;20.30;99.90;;;;;;5064997;28;20058;-36
2023/08/14 07:23:12;;;;;;;9.55;4.40;;;20.30;99.90;;;;;;5076039;28;20555;-35
2023/08/14 07:25:38;;;;;;;6.70;4.20;;;20.40;99.90;;;;;;5063505;28;20047;-35
2023/08/14 07:28:04;;;;;;;4.85;4.28;;;20.50;99.90;;;;;;5073913;28;20039;-35
2023/08/14 07:30:30;;;;;;;7.55;4.75;;;20.60;99.90;;;;;;5065593;28;20032;-35
2023/08/14 07:32:56;;;;;;;6.47;4.40;;;20.60;99.90;;;;;;5070986;28;20040;-36
2023/08/14 07:35:21;;;;;;;6.93;4.88;;;20.70;99.90;;;;;;5068098;28;20403;-36
2023/08/14 07:37:47;;;;;;;8.43;5.20;;;20.80;99.90;;;;;;5069451;28;20046;-36
2023/08/14 07:40:12;;;;;;;6.60;4.43;;;20.90;99.90;;;;;;5069907;28;20119;-36
2023/08/14 07:42:38;;;;;;;5.55;4.13;;;21.00;99.90;;;;;;5066636;28;20025;-35
2023/08/14 07:45:04;;;;;;;6.88;4.00;;;21.00;99.90;;;;;;5073916;28;20040;-35
2023/08/14 07:47:39;;;;;;;6.65;4.32;;;21.10;99.90;;;;;;5064884;28;20025;-36
2023/08/14 07:50:05;;;;;;;5.10;4.18;;;21.10;99.90;;;;;;5072217;28;20044;-36
2023/08/14 07:52:30;;;;;;;5.78;4.95;;;21.10;99.90;;;;;;5082088;28;20020;-35
2023/08/14 07:54:57;;;;;;;7.72;4.35;;;21.10;99.90;;;;;;5071782;28;20074;-35
2023/08/14 07:57:26;;;;;;;5.30;4.03;;;21.10;99.90;;;;;;5081794;28;20136;-38
2023/08/14 07:59:52;;;;;;;5.93;4.03;;;21.20;99.90;;;;;;5065938;28;20890;-34
2023/08/14 08:02:23;;;;;;;6.95;3.83;;;21.30;99.90;;;;;;5061848;28;20527;-35
2023/08/14 08:04:49;;;;;;;5.65;3.65;;;21.30;99.90;;;;;;5075316;28;20064;-34
2023/08/14 08:07:15;;;;;;;5.55;3.97;;;21.40;99.90;;;;;;5065615;28;20108;-37
2023/08/14 08:09:40;;;;;;;6.80;4.05;;;21.40;99.90;;;;;;5079382;28;20031;-34
2023/08/14 08:12:09;;;;;;;6.28;4.03;;;21.30;99.90;;;;;;5067451;28;20545;-35
2023/08/14 08:14:36;;;;;;;4.32;2.90;;;21.30;99.90;;;;;;5077050;28;20023;-34
2023/08/14 08:17:02;;;;;;;4.93;2.95;;;21.30;99.90;;;;;;5068303;28;20614;-35
2023/08/14 08:19:28;;;;;;;4.13;2.42;;;21.20;99.90;;;;;;5075531;28;20590;-34
2023/08/14 08:21:54;;;;;;;6.25;3.20;;;21.20;99.90;;;;;;5071467;28;20035;-40
2023/08/14 08:24:19;;;;;;;7.18;3.35;;;21.20;99.90;;;;;;5072832;28;20389;-37
2023/08/14 08:26:51;;;;;;;4.22;2.90;;;21.20;99.90;;;;;;5074361;28;20388;-35
2023/08/14 08:29:17;;;;;;;6.38;4.00;;;21.20;99.90;;;;;;5069789;28;20693;-34
2023/08/14 08:31:42;;;;;;;3.90;2.45;;;21.20;99.90;;;;;;5076388;28;20024;-36
2023/08/14 08:34:08;;;;;;;4.68;2.30;;;21.20;99.90;;;;;;5068052;28;20368;-36
2023/08/14 08:36:34;;;;;;;3.80;2.03;;;21.20;99.90;;;;;;5077174;28;20031;-36
2023/08/14 08:38:59;;;;;;;5.55;2.17;;;21.20;99.90;;;;;;5067955;28;20044;-36
2023/08/14 08:41:32;;;;;;;4.45;2.20;;;21.20;99.90;;;;;;5078827;28;20017;-36
2023/08/14 08:44:10;;;;;;;3.80;2.50;;;21.20;99.90;;;;;;5066815;28;20028;-35
2023/08/14 08:46:37;;;;;;;3.05;2.45;;;21.30;99.90;;;;;;5078943;28;20044;-36
2023/08/14 08:49:03;;;;;;;6.00;2.45;;;21.30;99.90;;;;;;5066797;28;20017;-35
2023/08/14 08:51:37;;;;;;;4.75;2.75;;;21.40;99.90;;;;;;5074183;28;20060;-34
2023/08/14 08:54:02;;;;;;;4.43;2.53;;;21.50;99.90;;;;;;5087426;28;20058;-37
2023/08/14 08:56:29;;;;;;;5.53;2.42;;;21.50;99.90;;;;;;5079955;28;20415;-36
2023/08/14 08:58:55;;;;;;;4.43;2.50;;;21.60;99.90;;;;;;5066973;28;20533;-35
2023/08/14 09:01:21;;;;;;;3.92;2.10;;;21.60;99.90;;;;;;5077850;28;20028;-37
2023/08/14 09:03:50;;;;;;;3.58;1.83;;;21.70;99.90;;;;;;5064664;28;20025;-36
2023/08/14 09:06:16;;;;;;;3.65;2.00;;;21.80;99.90;;;;;;5074719;28;20103;-42
2023/08/14 09:08:41;;;;;;;3.13;1.73;;;21.90;99.90;;;;;;5067604;28;20441;-35
2023/08/14 09:11:07;;;;;;;4.00;1.92;;;21.90;99.90;;;;;;5071466;28;20104;-36
2023/08/14 09:13:33;;;;;;;15.15;2.25;;;22.00;99.90;;;;;;5070461;28;20052;-34
2023/08/14 09:16:00;;;;;;;3.05;1.80;;;22.00;99.90;;;;;;5070149;28;20455;-37
2023/08/14 09:18:26;;;;;;;3.08;1.80;;;22.10;99.90;;;;;;5072963;28;20040;-35
2023/08/14 09:20:56;;;;;;;2.90;1.70;;;22.20;99.90;;;;;;5068460;28;20028;-36
2023/08/14 09:23:22;;;;;;;3.40;1.63;;;22.30;99.90;;;;;;5075685;28;20551;-36
2023/08/14 09:25:49;;;;;;;3.35;1.90;;;22.40;99.90;;;;;;5065809;28;20027;-36
2023/08/14 09:28:17;;;;;;;5.47;1.90;;;22.40;99.90;;;;;;5076613;28;20038;-36
2023/08/14 09:30:43;;;;;;;5.47;1.75;;;22.50;99.90;;;;;;5066960;28;20024;-35
2023/08/14 09:33:10;;;;;;;4.72;2.38;;;22.50;99.90;;;;;;5076188;28;20119;-35
2023/08/14 09:35:37;;;;;;;2.47;1.70;;;22.60;99.90;;;;;;5066357;28;20771;-35
2023/08/14 09:38:04;;;;;;;3.88;2.00;;;22.60;99.90;;;;;;5077834;28;20032;-35
2023/08/14 09:40:32;;;;;;;4.18;2.10;;;22.70;99.90;;;;;;5066103;28;20112;-36
2023/08/14 09:42:59;;;;;;;4.38;2.00;;;22.70;99.90;;;;;;5077848;28;20067;-35
2023/08/14 09:45:27;;;;;;;2.60;1.75;;;22.80;99.90;;;;;;5064069;28;20017;-35
2023/08/14 09:47:58;;;;;;;4.18;1.80;;;22.80;99.90;;;;;;5077539;28;20036;-36
2023/08/14 09:50:27;;;;;;;4.35;2.33;;;22.80;99.90;;;;;;5064934;28;20388;-33
2023/08/14 09:52:57;;;;;;;3.53;1.92;;;22.90;99.90;;;;;;5074930;28;20020;-35
2023/08/14 09:55:26;;;;;;;4.18;1.85;;;23.00;99.90;;;;;;5067114;28;20036;-37
2023/08/14 09:57:53;;;;;;;1.45;1.20;;;23.10;99.90;;;;;;5073800;28;20067;-35
2023/08/14 10:00:18;;;;;;;1.80;1.42;;;23.20;99.90;;;;;;5074413;28;20089;-37
2023/08/14 10:02:46;;;;;;;3.42;1.70;;;23.30;99.90;;;;;;5079235;28;20112;-35
2023/08/14 10:05:15;;;;;;;1.70;1.30;;;23.40;99.90;;;;;;5079230;28;20043;-36
2023/08/14 10:07:42;;;;;;;3.45;1.60;;;23.40;99.90;;;;;;5079730;28;20103;-37
2023/08/14 10:10:13;;;;;;;4.38;1.30;;;23.50;99.90;;;;;;5076757;28;20154;-37
2023/08/14 10:12:57;;;;;;;2.78;1.38;;;23.50;99.90;;;;;;5080828;28;20520;-37
2023/08/14 10:15:31;;;;;;;1.80;1.40;;;23.40;99.90;;;;;;5075983;28;20027;-35
2023/08/14 10:18:01;;;;;;;2.72;1.48;;;23.50;99.90;;;;;;5079336;28;20035;-36
2023/08/14 10:20:30;;;;;;;3.38;1.85;;;23.60;99.90;;;;;;5075569;28;20485;-36
2023/08/14 10:23:00;;;;;;;2.92;1.60;;;23.60;99.90;;;;;;5082761;28;20024;-36
2023/08/14 10:25:29;;;;;;;3.58;1.50;;;23.60;99.90;;;;;;5075482;28;20031;-34
2023/08/14 10:27:54;;;;;;;3.45;1.60;;;23.70;99.90;;;;;;5074068;28;20016;-35
2023/08/14 10:30:24;;;;;;;2.10;1.33;;;23.80;99.90;;;;;;5081963;28;20024;-36
2023/08/14 10:32:51;;;;;;;3.85;1.50;;;23.80;99.90;;;;;;5083068;28;20020;-36
2023/08/14 10:35:17;;;;;;;3.17;1.40;;;23.90;99.90;;;;;;5075582;28;20626;-35
2023/08/14 10:37:47;;;;;;;3.28;1.38;;;23.90;99.90;;;;;;5084274;28;20161;-38
2023/08/14 10:40:25;;;;;;;2.10;1.50;;;24.00;99.90;;;;;;5068019;28;20119;-37
2023/08/14 10:42:54;;;;;;;2.47;1.20;;;24.00;99.90;;;;;;5063930;28;20051;-37
2023/08/14 10:45:28;;;;;;;2.75;1.35;;;24.10;99.90;;;;;;5071726;28;20538;-35
2023/08/14 10:47:59;;;;;;;2.35;1.20;;;24.10;99.90;;;;;;5085567;28;20101;-35
2023/08/14 10:50:28;;;;;;;2.42;1.08;;;24.10;99.90;;;;;;5071766;28;20048;-36
2023/08/14 10:52:56;;;;;;;1.73;1.00;;;24.20;99.90;;;;;;5084028;28;20028;-39
2023/08/14 10:55:34;;;;;;;4.47;1.67;;;24.20;99.90;;;;;;5070178;28;20017;-36
2023/08/14 10:58:28;;;;;;;2.20;1.17;;;24.30;99.90;;;;;;5069491;28;20025;-36
2023/08/14 11:00:58;;;;;;;2.47;1.02;;;24.30;99.90;;;;;;5079182;28;20064;-36
2023/08/14 11:03:23;;;;;;;2.28;1.20;;;24.40;99.90;;;;;;5083009;28;20436;-35
2023/08/14 11:05:49;;;;;;;3.55;1.23;;;24.40;99.90;;;;;;5070875;28;20486;-36
2023/08/14 11:08:18;;;;;;;3.05;0.90;;;24.40;99.90;;;;;;5084621;28;20036;-34
2023/08/14 11:10:44;;;;;;;1.48;1.13;;;24.40;99.90;;;;;;5070828;28;20677;-35
2023/08/14 11:13:14;;;;;;;1.73;1.13;;;24.40;99.90;;;;;;5064196;28;20032;-35
2023/08/14 11:15:41;;;;;;;2.78;1.10;;;24.50;99.90;;;;;;5074474;28;20026;-34
2023/08/14 11:18:10;;;;;;;4.97;1.20;;;24.60;99.90;;;;;;5063811;28;20331;-36
2023/08/14 11:20:42;;;;;;;2.13;1.10;;;24.70;99.90;;;;;;5067444;28;20013;-36
2023/08/14 11:23:08;;;;;;;2.38;1.40;;;24.80;99.90;;;;;;5079690;28;20027;-34
2023/08/14 11:25:34;;;;;;;2.08;1.10;;;24.90;99.90;;;;;;5075037;28;20115;-36
2023/08/14 11:28:00;;;;;;;2.85;1.35;;;24.90;99.90;;;;;;5077606;28;20111;-35
2023/08/14 11:30:31;;;;;;;2.95;1.38;;;24.90;99.90;;;;;;5078771;28;20788;-36
2023/08/14 11:32:56;;;;;;;1.27;0.82;;;24.90;99.90;;;;;;5075188;28;20487;-36
2023/08/14 11:35:24;;;;;;;2.38;1.23;;;24.90;99.90;;;;;;5080840;28;20024;-34
2023/08/14 11:37:50;;;;;;;1.33;0.75;;;24.90;99.90;;;;;;5073951;28;20107;-35
2023/08/14 11:40:31;;;;;;;1.45;1.00;;;24.90;99.90;;;;;;5083570;28;20139;-34
2023/08/14 11:42:56;;;;;;;2.53;1.20;;;25.00;99.90;;;;;;5076669;28;20135;-35
2023/08/14 11:45:25;;;;;;;1.83;0.88;;;25.00;99.90;;;;;;5084484;28;20107;-36
2023/08/14 11:47:51;;;;;;;0.93;0.80;;;25.10;99.90;;;;;;5079199;28;20027;-36
2023/08/14 11:50:17;;;;;;;2.65;1.08;;;25.10;99.90;;;;;;5068793;28;20060;-36
2023/08/14 11:52:47;;;;;;;2.25;1.30;;;25.20;99.90;;;;;;5078797;28;20059;-36
2023/08/14 11:55:16;;;;;;;2.38;1.15;;;25.40;99.90;;;;;;5067787;28;20059;-36
2023/08/14 11:57:43;;;;;;;2.67;1.23;;;25.40;99.90;;;;;;5072583;28;20076;-35
2023/08/14 12:00:13;;;;;;;3.17;1.30;;;25.50;99.90;;;;;;5083481;28;20062;-35
2023/08/14 12:02:39;;;;;;;4.15;1.38;;;25.50;99.90;;;;;;5080266;28;20661;-36
2023/08/14 12:05:05;;;;;;;5.00;1.55;;;25.50;99.90;;;;;;5067775;28;20739;-38
2023/08/14 12:07:31;;;;;;;2.83;1.10;;;25.50;99.90;;;;;;5078877;28;20646;-35
2023/08/14 12:09:58;;;;;;;1.85;1.27;;;25.50;99.90;;;;;;5067568;28;20796;-36
2023/08/14 12:12:26;;;;;;;2.28;1.10;;;25.60;99.90;;;;;;5076469;28;20016;-37
2023/08/14 12:14:52;;;;;;;3.97;1.40;;;25.60;99.90;;;;;;5069471;28;20016;-37
2023/08/14 12:17:18;;;;;;;3.17;1.33;;;25.60;99.90;;;;;;5074338;28;20368;-36
2023/08/14 12:19:54;;;;;;;3.92;1.65;;;25.60;99.90;;;;;;5072201;28;20064;-36
2023/08/14 12:22:21;;;;;;;2.40;1.25;;;25.60;99.90;;;;;;5072558;28;20062;-35
2023/08/14 12:24:47;;;;;;;1.30;0.75;;;25.60;99.90;;;;;;5073865;28;20028;-35
2023/08/14 12:27:21;;;;;;;1.85;0.90;;;25.60;99.90;;;;;;5068345;28;20029;-35
2023/08/14 12:29:47;;;;;;;1.55;0.98;;;25.60;99.90;;;;;;5074050;28;20028;-36
2023/08/14 12:32:13;;;;;;;1.10;0.90;;;25.70;99.90;;;;;;5066691;28;20024;-34
2023/08/14 12:34:39;;;;;;;2.33;1.05;;;25.80;99.90;;;;;;5075214;28;20494;-36
2023/08/14 12:37:05;;;;;;;2.75;1.20;;;25.90;99.90;;;;;;5066565;28;20016;-36
2023/08/14 12:39:31;;;;;;;2.38;1.20;;;26.00;99.90;;;;;;5078535;28;20028;-35
2023/08/14 12:41:58;;;;;;;0.95;0.75;;;26.10;99.90;;;;;;5065877;28;20020;-36
2023/08/14 12:44:24;;;;;;;1.05;0.80;;;26.00;99.90;;;;;;5078030;28;20033;-36
2023/08/14 12:46:50;;;;;;;2.50;1.38;;;26.00;99.90;;;;;;5067361;28;20021;-37